Hyderabad, Pakistan
Current Conditions -  °F | °C
As of 2:00 AM on Tuesday 21 Oct 2014 (Local Time) from OPNH Reporting Station
Haze Haze  
Wind Chill: 70°   Ceiling: Unl
Heat Index: 70°   Visibility: 2.5mi
Dew Point: 61°   Wind: 0mph
Humidity: 73%   Direction: NA
Pressure: 29.88"   Gusts: NA
Location:  25.38°N, 68.37°E
Report Text: OPNH 202100Z 00000KT 4000M HZ NSC 21/16 Q1012
Loading
Personal Weather Stations






























Interactive Weather Map
Tropical Storm Tracking
New forecast layout! Learn more

10-Day Weather Forecast

Advertisements
Track Severe Weather on mobile